createdAt,value
2023-04-26T00:01:05.597Z,97359.47
2023-04-26T00:03:34.563Z,97361.13
2023-04-26T00:06:05.545Z,97356.50
2023-04-26T00:08:33.067Z,97361.66
2023-04-26T00:11:00.758Z,97351.06
2023-04-26T00:13:28.641Z,97360.63
2023-04-26T00:15:56.178Z,97362.47
2023-04-26T00:18:23.705Z,97369.41
2023-04-26T00:20:52.659Z,97374.69
2023-04-26T00:23:20.218Z,97373.06
2023-04-26T00:25:47.712Z,97363.63
2023-04-26T00:28:15.858Z,97366.09
2023-04-26T00:30:47.685Z,97364.09
2023-04-26T00:33:15.386Z,97377.34
2023-04-26T00:35:43.237Z,97375.03
2023-04-26T00:38:12.051Z,97376.69
2023-04-26T00:40:39.549Z,97382.97
2023-04-26T00:43:07.079Z,97377.00
2023-04-26T00:45:35.511Z,97382.97
2023-04-26T00:48:04.087Z,97375.84
2023-04-26T00:50:32.365Z,97380.94
2023-04-26T00:53:00.108Z,97378.16
2023-04-26T00:55:28.989Z,97378.97
2023-04-26T00:57:56.661Z,97374.16
2023-04-26T01:00:24.323Z,97374.31
2023-04-26T01:02:52.197Z,97382.28
2023-04-26T01:05:20.661Z,97382.63
2023-04-26T01:07:48.466Z,97379.00
2023-04-26T01:10:16.327Z,97379.50
2023-04-26T01:12:45.249Z,97379.16
2023-04-26T01:15:12.872Z,97380.81
2023-04-26T01:17:40.575Z,97383.63
2023-04-26T01:20:10.441Z,97379.31
2023-04-26T01:22:39.321Z,97375.53
2023-04-26T01:25:09.004Z,97380.31
2023-04-26T01:27:36.893Z,97379.31
2023-04-26T01:30:04.645Z,97383.47
2023-04-26T01:32:32.182Z,97383.31
2023-04-26T01:35:00.647Z,97390.91
2023-04-26T01:37:28.220Z,97391.72
2023-04-26T01:39:57.030Z,97380.16
2023-04-26T01:42:24.526Z,97387.75
2023-04-26T01:44:52.025Z,97388.56
2023-04-26T01:47:19.570Z,97389.09
2023-04-26T01:49:47.134Z,97396.66
2023-04-26T01:52:14.665Z,97383.13
2023-04-26T01:54:42.178Z,97393.72
2023-04-26T01:57:11.036Z,97396.34
2023-04-26T01:59:38.579Z,97402.47
2023-04-26T02:02:06.868Z,97397.53
2023-04-26T02:04:34.561Z,97394.69
2023-04-26T02:07:02.135Z,97398.28
2023-04-26T02:09:29.598Z,97393.81
2023-04-26T02:11:57.274Z,97391.34
2023-04-26T02:14:28.207Z,97399.59
2023-04-26T02:16:57.069Z,97402.72
2023-04-26T02:19:24.696Z,97404.16
2023-04-26T02:21:53.690Z,97403.38
2023-04-26T02:24:21.596Z,97396.91
2023-04-26T02:26:49.113Z,97395.09
2023-04-26T02:29:16.629Z,97398.09
2023-04-26T02:31:45.546Z,97388.06
2023-04-26T02:34:13.315Z,97388.53
2023-04-26T02:36:41.077Z,97388.84
2023-04-26T02:39:08.766Z,97387.00
2023-04-26T02:41:36.920Z,97385.63
2023-04-26T02:44:04.533Z,97386.63
2023-04-26T02:46:32.944Z,97389.47
2023-04-26T02:49:02.135Z,97398.69
2023-04-26T02:51:29.718Z,97390.25
2023-04-26T02:53:57.288Z,97386.69
2023-04-26T02:56:25.546Z,97384.81
2023-04-26T02:58:55.360Z,97383.84
2023-04-26T03:01:22.999Z,97384.16
2023-04-26T03:03:50.985Z,97386.16
2023-04-26T03:06:19.913Z,97383.50
2023-04-26T03:08:47.441Z,97383.75
2023-04-26T03:11:14.933Z,97392.06
2023-04-26T03:13:42.772Z,97388.44
2023-04-26T03:16:11.088Z,97384.22
2023-04-26T03:18:38.617Z,97388.13
2023-04-26T03:21:07.657Z,97382.19
2023-04-26T03:23:37.108Z,97380.88
2023-04-26T03:26:05.356Z,97387.50
2023-04-26T03:28:32.886Z,97382.00
2023-04-26T03:31:00.747Z,97384.63
2023-04-26T03:33:29.234Z,97388.25
2023-04-26T03:35:56.838Z,97379.06
2023-04-26T03:38:24.980Z,97395.47
2023-04-26T03:40:53.967Z,97396.13
2023-04-26T03:43:21.692Z,97393.75
2023-04-26T03:45:50.816Z,97389.56
2023-04-26T03:48:18.334Z,97398.41
2023-04-26T03:50:46.635Z,97398.31
2023-04-26T03:53:14.134Z,97403.22
2023-04-26T03:55:41.665Z,97407.75
2023-04-26T03:58:11.421Z,97398.72
2023-04-26T04:00:39.272Z,97397.78
2023-04-26T04:03:07.853Z,97407.56
2023-04-26T04:05:35.635Z,97408.97
2023-04-26T04:08:04.264Z,97415.91
2023-04-26T04:10:31.934Z,97408.00
2023-04-26T04:13:00.099Z,97415.19
2023-04-26T04:15:29.099Z,97418.22
2023-04-26T04:17:56.793Z,97425.63
2023-04-26T04:20:24.375Z,97427.28
2023-04-26T04:22:55.276Z,97437.97
2023-04-26T04:25:23.012Z,97428.66
2023-04-26T04:27:51.905Z,97430.63
2023-04-26T04:30:19.457Z,97431.88
2023-04-26T04:32:48.315Z,97434.28
2023-04-26T04:35:17.744Z,97434.91
2023-04-26T04:37:45.523Z,97439.75
2023-04-26T04:40:14.066Z,97441.34
2023-04-26T04:42:46.646Z,97431.78
2023-04-26T04:45:15.789Z,97437.56
2023-04-26T04:47:44.003Z,97454.44
2023-04-26T04:50:12.980Z,97448.13
2023-04-26T04:52:40.893Z,97445.78
2023-04-26T04:55:08.918Z,97446.31
2023-04-26T04:57:39.326Z,97449.94
2023-04-26T05:00:10.381Z,97462.97
2023-04-26T05:02:43.885Z,97457.00
2023-04-26T05:05:13.270Z,97460.84
2023-04-26T05:07:41.572Z,97468.38
2023-04-26T05:10:10.188Z,97467.09
2023-04-26T05:12:38.100Z,97473.41
2023-04-26T05:15:06.683Z,97467.97
2023-04-26T05:17:34.967Z,97476.56
2023-04-26T05:20:14.752Z,97468.97
2023-04-26T05:22:42.483Z,97473.41
2023-04-26T05:25:11.274Z,97481.16
2023-04-26T05:27:39.878Z,97476.41
2023-04-26T05:30:21.564Z,97474.53
2023-04-26T05:33:15.320Z,97482.66
2023-04-26T05:35:54.098Z,97486.53
2023-04-26T05:38:22.856Z,97493.25
2023-04-26T05:40:50.388Z,97482.25
2023-04-26T05:43:18.443Z,97488.09
2023-04-26T05:45:51.983Z,97486.34
2023-04-26T05:48:21.238Z,97490.97
2023-04-26T05:50:48.749Z,97498.06
2023-04-26T05:53:17.708Z,97493.81
2023-04-26T05:55:45.311Z,97504.44
2023-04-26T05:58:13.104Z,97504.09
2023-04-26T06:00:42.536Z,97500.25
2023-04-26T06:03:10.883Z,97503.00
2023-04-26T06:05:39.266Z,97496.28
2023-04-26T06:08:07.045Z,97495.59
2023-04-26T06:10:38.379Z,97492.09
2023-04-26T06:13:07.083Z,97491.03
2023-04-26T06:15:37.349Z,97491.28
2023-04-26T06:18:05.719Z,97491.28
2023-04-26T06:20:33.290Z,97490.31
2023-04-26T06:23:00.857Z,97491.53
2023-04-26T06:25:28.476Z,97490.41
2023-04-26T06:27:59.403Z,97484.66
2023-04-26T06:30:27.520Z,97486.16
2023-04-26T06:32:55.492Z,97489.47
2023-04-26T06:35:25.224Z,97497.19
2023-04-26T06:37:53.352Z,97499.47
2023-04-26T06:40:22.064Z,97499.84
2023-04-26T06:42:49.775Z,97493.06
2023-04-26T06:45:18.907Z,97494.03
2023-04-26T06:47:47.054Z,97497.72
2023-04-26T06:50:15.454Z,97500.03
2023-04-26T06:52:42.983Z,97497.22
2023-04-26T06:55:11.299Z,97492.59
2023-04-26T06:57:38.843Z,97499.72
2023-04-26T07:00:09.542Z,97499.06
2023-04-26T07:02:38.545Z,97486.31
2023-04-26T07:05:07.045Z,97485.97
2023-04-26T07:07:34.918Z,97494.91
2023-04-26T07:10:02.447Z,97491.44
2023-04-26T07:12:29.919Z,97492.44
2023-04-26T07:14:58.205Z,97499.06
2023-04-26T07:17:25.695Z,97503.69
2023-04-26T07:19:56.135Z,97494.03
2023-04-26T07:22:23.808Z,97503.59
2023-04-26T07:24:51.277Z,97503.22
2023-04-26T07:27:18.776Z,97493.56
2023-04-26T07:29:46.313Z,97493.50
2023-04-26T07:32:14.061Z,97499.16
2023-04-26T07:34:41.977Z,97496.53
2023-04-26T07:37:10.800Z,97504.22
2023-04-26T07:39:38.262Z,97512.59
2023-04-26T07:42:05.865Z,97509.78
2023-04-26T07:44:33.357Z,97508.63
2023-04-26T07:47:00.865Z,97509.78
2023-04-26T07:49:28.358Z,97510.28
2023-04-26T07:51:58.084Z,97510.34
2023-04-26T07:54:26.938Z,97510.44
2023-04-26T07:56:54.526Z,97505.28
2023-04-26T07:59:22.054Z,97514.13
2023-04-26T08:01:49.883Z,97515.25
2023-04-26T08:04:19.715Z,97520.88
2023-04-26T08:06:48.638Z,97520.72
2023-04-26T08:09:16.238Z,97524.84
2023-04-26T08:11:45.040Z,97525.97
2023-04-26T08:14:12.532Z,97531.00
2023-04-26T08:16:40.519Z,97521.13
2023-04-26T08:19:08.076Z,97528.00
2023-04-26T08:21:35.733Z,97528.63
2023-04-26T08:24:03.506Z,97525.41
2023-04-26T08:26:31.040Z,97519.84
2023-04-26T08:29:00.041Z,97527.81
2023-04-26T08:31:27.655Z,97534.97
2023-04-26T08:33:55.254Z,97526.19
2023-04-26T08:36:22.894Z,97524.03
2023-04-26T08:38:50.391Z,97531.75
2023-04-26T08:41:22.450Z,97525.59
2023-04-26T08:43:50.839Z,97527.44
2023-04-26T08:46:20.971Z,97527.47
2023-04-26T08:48:58.172Z,97527.47
2023-04-26T08:51:26.053Z,97530.00
2023-04-26T08:53:54.400Z,97534.91
2023-04-26T08:56:23.727Z,97536.69
2023-04-26T08:58:51.979Z,97536.41
2023-04-26T09:01:21.588Z,97532.19
2023-04-26T09:03:49.326Z,97529.44
2023-04-26T09:06:17.370Z,97530.97
2023-04-26T09:08:45.203Z,97536.84
2023-04-26T09:11:12.807Z,97525.63
2023-04-26T09:13:40.339Z,97522.16
2023-04-26T09:16:08.506Z,97534.53
2023-04-26T09:18:48.494Z,97523.81
2023-04-26T09:21:18.981Z,97522.84
2023-04-26T09:23:58.680Z,97518.91
2023-04-26T09:26:26.452Z,97528.78
2023-04-26T09:29:12.493Z,97527.88
2023-04-26T09:31:42.097Z,97530.69
2023-04-26T09:34:11.966Z,97520.06
2023-04-26T09:36:50.095Z,97517.66
2023-04-26T09:39:31.312Z,97531.34
2023-04-26T09:41:59.180Z,97541.22
2023-04-26T09:44:27.074Z,97529.69
2023-04-26T09:47:01.878Z,97531.94
2023-04-26T09:49:33.065Z,97530.88
2023-04-26T09:52:01.757Z,97538.69
2023-04-26T09:54:43.069Z,97521.41
2023-04-26T09:57:10.791Z,97532.22
2023-04-26T09:59:42.999Z,97529.16
2023-04-26T10:02:14.824Z,97523.09
2023-04-26T10:04:45.651Z,97530.00
2023-04-26T10:07:13.910Z,97530.72
2023-04-26T10:09:41.798Z,97531.59
2023-04-26T10:12:10.455Z,97524.84
2023-04-26T10:14:38.424Z,97523.66
2023-04-26T10:17:06.449Z,97526.88
2023-04-26T10:19:35.212Z,97523.75
2023-04-26T10:22:06.279Z,97531.84
2023-04-26T10:24:35.659Z,97529.75
2023-04-26T10:27:04.203Z,97524.22
2023-04-26T10:30:07.701Z,97529.78
2023-04-26T10:33:16.504Z,97519.91
2023-04-26T10:36:06.817Z,97519.56
2023-04-26T10:38:35.289Z,97519.22
2023-04-26T10:41:36.122Z,97517.16
2023-04-26T10:44:42.275Z,97505.53
2023-04-26T10:47:22.914Z,97516.22
2023-04-26T10:49:50.645Z,97520.56
2023-04-26T10:52:21.448Z,97519.47
2023-04-26T10:54:56.811Z,97518.47
2023-04-26T10:57:25.692Z,97519.56
2023-04-26T11:00:20.863Z,97519.81
2023-04-26T11:02:56.085Z,97523.13
2023-04-26T11:05:39.428Z,97521.25
2023-04-26T11:08:10.026Z,97515.56
2023-04-26T11:10:40.976Z,97500.53
2023-04-26T11:13:08.521Z,97503.78
2023-04-26T11:15:36.450Z,97508.44
2023-04-26T11:18:04.355Z,97504.16
2023-04-26T11:20:32.719Z,97492.66
2023-04-26T11:23:00.377Z,97494.34
2023-04-26T11:25:30.020Z,97499.69
2023-04-26T11:28:01.818Z,97491.59
2023-04-26T11:30:31.629Z,97487.75
2023-04-26T11:33:00.005Z,97491.78
2023-04-26T11:35:29.556Z,97491.84
2023-04-26T11:37:59.911Z,97492.97
2023-04-26T11:40:32.935Z,97491.56
2023-04-26T11:43:02.390Z,97493.47
2023-04-26T11:45:29.910Z,97486.00
2023-04-26T11:47:58.118Z,97495.06
2023-04-26T11:50:27.437Z,97491.00
2023-04-26T11:52:56.609Z,97493.81
2023-04-26T11:55:30.515Z,97488.69
2023-04-26T11:57:59.522Z,97492.81
2023-04-26T12:00:27.405Z,97491.47
2023-04-26T12:02:57.216Z,97483.34
2023-04-26T12:05:26.391Z,97490.19
2023-04-26T12:07:56.631Z,97487.75
2023-04-26T12:10:27.024Z,97489.41
2023-04-26T12:12:56.707Z,97484.16
2023-04-26T12:15:26.857Z,97493.47
2023-04-26T12:17:59.868Z,97491.53
2023-04-26T12:20:32.620Z,97491.00
2023-04-26T12:23:01.364Z,97484.78
2023-04-26T12:25:29.104Z,97492.22
2023-04-26T12:27:57.124Z,97493.59
2023-04-26T12:30:26.701Z,97488.72
2023-04-26T12:33:15.538Z,97499.47
2023-04-26T12:35:44.964Z,97488.56
2023-04-26T12:38:13.334Z,97493.19
2023-04-26T12:40:41.771Z,97484.81
2023-04-26T12:43:09.624Z,97483.66
2023-04-26T12:45:38.488Z,97482.53
2023-04-26T12:48:06.387Z,97486.03
2023-04-26T12:50:34.106Z,97482.94
2023-04-26T12:53:01.763Z,97478.78
2023-04-26T12:55:31.265Z,97477.00
2023-04-26T12:58:00.234Z,97472.16
2023-04-26T13:00:27.793Z,97466.66
2023-04-26T13:02:56.781Z,97475.03
2023-04-26T13:05:25.386Z,97469.63
2023-04-26T13:07:52.979Z,97478.53
2023-04-26T13:10:20.478Z,97471.94
2023-04-26T13:12:47.997Z,97480.50
2023-04-26T13:15:16.874Z,97478.56
2023-04-26T13:17:45.606Z,97483.22
2023-04-26T13:20:14.821Z,97488.25
2023-04-26T13:22:43.276Z,97483.25
2023-04-26T13:25:11.048Z,97481.22
2023-04-26T13:27:38.923Z,97488.44
2023-04-26T13:30:08.734Z,97483.16
2023-04-26T13:32:36.498Z,97488.84
2023-04-26T13:35:04.253Z,97478.94
2023-04-26T13:37:33.111Z,97487.00
2023-04-26T13:40:02.805Z,97489.09
2023-04-26T13:42:30.288Z,97489.47
2023-04-26T13:44:57.762Z,97487.63
2023-04-26T13:47:25.434Z,97484.47
2023-04-26T13:49:52.941Z,97492.38
2023-04-26T13:52:20.610Z,97493.34
2023-04-26T13:54:49.451Z,97492.22
2023-04-26T13:57:17.077Z,97489.69
2023-04-26T13:59:44.542Z,97493.53
2023-04-26T14:02:12.450Z,97495.84
2023-04-26T14:04:40.764Z,97500.38
2023-04-26T14:07:11.008Z,97498.56
2023-04-26T14:09:38.551Z,97491.13
2023-04-26T14:12:08.862Z,97491.56
2023-04-26T14:14:36.989Z,97491.66
2023-04-26T14:17:04.558Z,97497.78
2023-04-26T14:19:32.094Z,97492.91
2023-04-26T14:21:59.744Z,97491.47
2023-04-26T14:24:27.263Z,97487.59
2023-04-26T14:26:54.861Z,97491.28
2023-04-26T14:29:23.749Z,97491.19
2023-04-26T14:31:51.528Z,97491.19
2023-04-26T14:34:19.420Z,97496.53
2023-04-26T14:36:47.102Z,97492.84
2023-04-26T14:39:15.115Z,97487.13
2023-04-26T14:41:43.264Z,97489.16
2023-04-26T14:44:10.885Z,97497.78
2023-04-26T14:46:39.824Z,97498.19
2023-04-26T14:49:07.352Z,97485.66
2023-04-26T14:51:34.865Z,97491.00
2023-04-26T14:54:02.385Z,97489.06
2023-04-26T14:56:33.633Z,97480.91
2023-04-26T14:59:01.835Z,97495.50
2023-04-26T15:01:29.445Z,97492.84
2023-04-26T15:04:00.600Z,97494.06
2023-04-26T15:06:30.739Z,97492.75
2023-04-26T15:08:58.405Z,97491.66
2023-04-26T15:11:25.898Z,97485.19
2023-04-26T15:13:53.634Z,97485.41
2023-04-26T15:16:21.721Z,97484.91
2023-04-26T15:18:49.367Z,97482.69
2023-04-26T15:21:18.731Z,97486.56
2023-04-26T15:23:46.515Z,97487.59
2023-04-26T15:26:14.063Z,97483.25
2023-04-26T15:28:42.580Z,97482.16
2023-04-26T15:31:11.195Z,97480.50
2023-04-26T15:33:38.758Z,97477.69
2023-04-26T15:36:06.851Z,97476.97
2023-04-26T15:38:36.138Z,97479.66
2023-04-26T15:41:04.205Z,97482.72
2023-04-26T15:43:31.689Z,97477.47
2023-04-26T15:45:59.383Z,97479.06
2023-04-26T15:48:27.005Z,97489.78
2023-04-26T15:50:56.556Z,97495.75
2023-04-26T15:53:24.296Z,97490.06
2023-04-26T15:55:53.140Z,97488.38
2023-04-26T15:58:20.611Z,97491.34
2023-04-26T16:00:48.136Z,97496.28
2023-04-26T16:03:15.776Z,97490.44
2023-04-26T16:05:43.405Z,97488.78
2023-04-26T16:08:10.930Z,97491.19
2023-04-26T16:10:38.660Z,97490.81
2023-04-26T16:13:07.847Z,97490.19
2023-04-26T16:15:35.755Z,97484.94
2023-04-26T16:18:03.386Z,97486.69
2023-04-26T16:20:31.437Z,97486.25
2023-04-26T16:22:58.933Z,97487.56
2023-04-26T16:25:26.582Z,97483.91
2023-04-26T16:27:54.067Z,97485.34
2023-04-26T16:30:23.143Z,97485.28
2023-04-26T16:32:50.654Z,97484.91
2023-04-26T16:35:18.459Z,97479.91
2023-04-26T16:37:46.585Z,97478.47
2023-04-26T16:40:14.572Z,97483.19
2023-04-26T16:42:43.428Z,97483.94
2023-04-26T16:45:13.228Z,97485.63
2023-04-26T16:47:43.656Z,97483.78
2023-04-26T16:50:11.712Z,97472.78
2023-04-26T16:52:39.430Z,97482.06
2023-04-26T16:55:08.587Z,97481.97
2023-04-26T16:57:36.196Z,97482.91
2023-04-26T17:00:06.012Z,97482.69
2023-04-26T17:02:33.602Z,97485.88
2023-04-26T17:05:03.090Z,97486.25
2023-04-26T17:07:30.700Z,97486.75
2023-04-26T17:09:58.191Z,97490.38
2023-04-26T17:12:25.974Z,97494.06
2023-04-26T17:14:53.462Z,97492.59
2023-04-26T17:17:20.927Z,97492.59
2023-04-26T17:19:48.376Z,97497.59
2023-04-26T17:22:17.225Z,97504.22
2023-04-26T17:24:44.836Z,97495.22
2023-04-26T17:27:12.308Z,97497.59
2023-04-26T17:29:39.794Z,97504.38
2023-04-26T17:32:07.561Z,97503.84
2023-04-26T17:34:35.170Z,97514.91
2023-04-26T17:37:02.632Z,97514.84
2023-04-26T17:39:31.646Z,97515.59
2023-04-26T17:41:59.116Z,97513.16
2023-04-26T17:44:26.796Z,97520.69
2023-04-26T17:46:54.272Z,97516.19
2023-04-26T17:49:25.472Z,97526.59
2023-04-26T17:51:53.040Z,97527.97
2023-04-26T17:54:20.648Z,97528.59
2023-04-26T17:56:49.548Z,97538.53
2023-04-26T17:59:17.013Z,97528.81
2023-04-26T18:01:44.684Z,97529.38
2023-04-26T18:04:12.512Z,97537.56
2023-04-26T18:06:40.691Z,97537.44
2023-04-26T18:09:08.526Z,97546.59
2023-04-26T18:11:36.178Z,97542.56
2023-04-26T18:14:04.987Z,97544.22
2023-04-26T18:16:32.859Z,97556.34
2023-04-26T18:19:00.598Z,97550.91
2023-04-26T18:21:29.514Z,97555.41
2023-04-26T18:23:57.115Z,97557.81
2023-04-26T18:26:24.686Z,97568.97
2023-04-26T18:28:52.189Z,97565.69
2023-04-26T18:31:22.148Z,97572.63
2023-04-26T18:33:49.989Z,97573.03
2023-04-26T18:36:17.767Z,97574.28
2023-04-26T18:38:45.494Z,97577.59
2023-04-26T18:41:12.972Z,97575.94
2023-04-26T18:43:40.601Z,97584.09
2023-04-26T18:46:08.111Z,97576.34
2023-04-26T18:48:36.925Z,97583.38
2023-04-26T18:51:04.764Z,97587.16
2023-04-26T18:53:32.262Z,97589.81
2023-04-26T18:55:59.892Z,97587.03
2023-04-26T18:58:27.352Z,97593.53
2023-04-26T19:00:55.234Z,97589.72
2023-04-26T19:03:25.232Z,97601.09
2023-04-26T19:05:54.506Z,97597.63
2023-04-26T19:08:21.983Z,97603.00
2023-04-26T19:10:49.866Z,97597.56
2023-04-26T19:13:18.615Z,97606.09
2023-04-26T19:15:46.572Z,97610.09
2023-04-26T19:18:14.168Z,97614.56
2023-04-26T19:20:41.811Z,97620.06
2023-04-26T19:23:12.443Z,97612.81
2023-04-26T19:25:40.099Z,97618.63
2023-04-26T19:28:07.757Z,97622.59
2023-04-26T19:30:36.320Z,97617.28
2023-04-26T19:33:03.984Z,97620.22
2023-04-26T19:35:31.545Z,97612.91
2023-04-26T19:37:59.056Z,97623.66
2023-04-26T19:40:29.356Z,97621.66
2023-04-26T19:42:57.402Z,97619.53
2023-04-26T19:45:25.049Z,97617.44
2023-04-26T19:47:52.583Z,97618.06
2023-04-26T19:50:20.307Z,97623.53
2023-04-26T19:52:48.017Z,97621.50
2023-04-26T19:55:15.650Z,97620.06
2023-04-26T19:57:44.764Z,97620.88
2023-04-26T20:00:13.316Z,97614.28
2023-04-26T20:02:40.971Z,97610.25
2023-04-26T20:05:10.219Z,97617.72
2023-04-26T20:07:37.742Z,97610.66
2023-04-26T20:10:06.174Z,97623.25
2023-04-26T20:12:34.352Z,97620.44
2023-04-26T20:15:03.447Z,97620.66
2023-04-26T20:17:30.950Z,97623.00
2023-04-26T20:19:58.449Z,97618.69
2023-04-26T20:22:26.444Z,97623.19
2023-04-26T20:24:53.978Z,97614.91
2023-04-26T20:27:21.490Z,97619.66
2023-04-26T20:29:49.008Z,97626.69
2023-04-26T20:32:18.018Z,97626.28
2023-04-26T20:34:45.531Z,97632.31
2023-04-26T20:37:13.662Z,97630.19
2023-04-26T20:39:41.673Z,97630.25
2023-04-26T20:42:09.607Z,97634.81
2023-04-26T20:44:37.173Z,97635.16
2023-04-26T20:47:05.052Z,97639.72
2023-04-26T20:49:33.857Z,97637.09
2023-04-26T20:52:01.338Z,97634.91
2023-04-26T20:54:28.869Z,97638.88
2023-04-26T20:56:56.477Z,97636.69
2023-04-26T20:59:25.242Z,97644.81
2023-04-26T21:01:53.815Z,97645.09
2023-04-26T21:04:21.690Z,97646.09
2023-04-26T21:06:51.090Z,97640.69
2023-04-26T21:09:18.641Z,97645.78
2023-04-26T21:11:46.185Z,97648.34
2023-04-26T21:14:14.553Z,97651.31
2023-04-26T21:16:42.170Z,97647.00
2023-04-26T21:19:09.827Z,97665.19
2023-04-26T21:21:37.489Z,97658.47
2023-04-26T21:24:06.662Z,97652.03
2023-04-26T21:26:34.153Z,97655.06
2023-04-26T21:29:01.744Z,97650.78
2023-04-26T21:31:29.294Z,97652.66
2023-04-26T21:33:56.867Z,97648.34
2023-04-26T21:36:24.523Z,97650.59
2023-04-26T21:38:52.738Z,97662.78
2023-04-26T21:41:22.603Z,97661.28
2023-04-26T21:43:50.737Z,97647.72
2023-04-26T21:46:18.244Z,97644.47
2023-04-26T21:48:45.812Z,97653.41
2023-04-26T21:51:13.307Z,97658.50
2023-04-26T21:53:41.011Z,97665.72
2023-04-26T21:56:08.850Z,97659.66
2023-04-26T21:58:37.695Z,97677.50
2023-04-26T22:01:09.799Z,97669.63
2023-04-26T22:03:37.705Z,97662.03
2023-04-26T22:06:06.189Z,97669.41
2023-04-26T22:08:33.809Z,97667.97
2023-04-26T22:11:01.731Z,97670.53
2023-04-26T22:13:29.278Z,97671.22
2023-04-26T22:15:58.180Z,97670.34
2023-04-26T22:18:26.419Z,97670.22
2023-04-26T22:20:54.469Z,97661.38
2023-04-26T22:23:21.963Z,97667.31
2023-04-26T22:25:49.462Z,97663.69
2023-04-26T22:28:17.003Z,97670.09
2023-04-26T22:30:44.758Z,97669.66
2023-04-26T22:33:13.727Z,97674.22
2023-04-26T22:35:41.586Z,97678.81
2023-04-26T22:38:09.148Z,97679.44
2023-04-26T22:40:36.678Z,97681.78
2023-04-26T22:43:04.281Z,97676.88
2023-04-26T22:45:31.823Z,97679.63
2023-04-26T22:47:59.474Z,97683.03
2023-04-26T22:50:28.347Z,97683.91
2023-04-26T22:52:56.009Z,97682.41
2023-04-26T22:55:23.668Z,97683.31
2023-04-26T22:57:51.295Z,97684.91
2023-04-26T23:00:19.919Z,97679.16
2023-04-26T23:02:47.539Z,97674.63
2023-04-26T23:05:15.075Z,97686.94
2023-04-26T23:07:43.940Z,97683.22
2023-04-26T23:10:11.982Z,97678.69
2023-04-26T23:12:40.655Z,97687.59
2023-04-26T23:15:09.118Z,97686.88
2023-04-26T23:17:36.851Z,97684.31
2023-04-26T23:20:11.933Z,97688.53
2023-04-26T23:22:40.367Z,97686.25
2023-04-26T23:25:10.132Z,97688.69
2023-04-26T23:27:37.914Z,97694.91
2023-04-26T23:30:06.311Z,97689.50
2023-04-26T23:32:33.999Z,97685.63
2023-04-26T23:35:01.598Z,97690.84
2023-04-26T23:37:30.077Z,97686.59
2023-04-26T23:39:57.600Z,97688.63
2023-04-26T23:42:26.471Z,97684.91
2023-04-26T23:44:53.962Z,97683.03
2023-04-26T23:47:21.450Z,97688.75
2023-04-26T23:49:48.906Z,97678.00
2023-04-26T23:52:16.388Z,97683.66
2023-04-26T23:54:43.872Z,97680.34
2023-04-26T23:57:11.806Z,97675.94
2023-04-26T23:59:40.609Z,97677.78
